createdAt,value
2018-12-14T00:00:52.282Z,17.6
2018-12-14T00:01:54.198Z,17.5
2018-12-14T00:02:55.819Z,17.5
2018-12-14T00:03:57.138Z,17.6
2018-12-14T00:04:58.752Z,17.6
2018-12-14T00:05:59.797Z,17.6
2018-12-14T00:07:01.394Z,17.5
2018-12-14T00:08:02.745Z,17.5
2018-12-14T00:09:04.337Z,17.4
2018-12-14T00:10:06.003Z,17.4
2018-12-14T00:11:07.599Z,17.4
2018-12-14T00:12:08.966Z,17.4
2018-12-14T00:13:10.586Z,17.5
2018-12-14T00:14:12.478Z,17.5
2018-12-14T00:15:13.820Z,17.4
2018-12-14T00:16:15.139Z,17.6
2018-12-14T00:17:16.493Z,17.4
2018-12-14T00:18:18.387Z,17.4
2018-12-14T00:19:20.004Z,17.5
2018-12-14T00:20:21.599Z,17.5
2018-12-14T00:21:22.938Z,17.4
2018-12-14T00:22:24.558Z,17.4
2018-12-14T00:23:26.457Z,17.5
2018-12-14T00:24:28.177Z,17.5
2018-12-14T00:25:30.069Z,17.5
2018-12-14T00:26:31.113Z,17.5
2018-12-14T00:27:32.728Z,17.5
2018-12-14T00:28:34.349Z,17.5
2018-12-14T00:29:36.243Z,17.5
2018-12-14T00:30:39.270Z,17.4
2018-12-14T00:31:40.620Z,17.5
2018-12-14T00:32:42.232Z,17.5
2018-12-14T00:33:43.563Z,17.6
2018-12-14T00:34:44.885Z,17.5
2018-12-14T00:35:46.506Z,17.6
2018-12-14T00:36:48.121Z,17.5
2018-12-14T00:37:50.015Z,17.5
2018-12-14T00:38:51.905Z,17.5
2018-12-14T00:39:53.801Z,17.5
2018-12-14T00:40:55.698Z,17.5
2018-12-14T00:41:57.597Z,17.5
2018-12-14T00:42:59.210Z,17.5
2018-12-14T00:44:00.876Z,17.5
2018-12-14T00:45:02.221Z,17.5
2018-12-14T00:46:03.839Z,17.4
2018-12-14T00:47:05.734Z,17.4
2018-12-14T00:48:08.317Z,17.5
2018-12-14T00:49:09.364Z,17.4
2018-12-14T00:50:11.259Z,17.4
2018-12-14T00:51:12.859Z,17.4
2018-12-14T00:52:14.202Z,17.5
2018-12-14T00:53:15.528Z,17.4
2018-12-14T00:54:17.125Z,17.5
2018-12-14T00:55:18.469Z,17.4
2018-12-14T00:56:20.064Z,17.5
2018-12-14T00:57:21.383Z,17.5
2018-12-14T00:58:23.291Z,17.5
2018-12-14T00:59:25.176Z,17.5
2018-12-14T01:00:27.073Z,17.5
2018-12-14T01:01:28.667Z,17.5
2018-12-14T01:02:30.008Z,17.5
2018-12-14T01:03:31.329Z,17.5
2018-12-14T01:04:32.396Z,17.5
2018-12-14T01:05:33.773Z,17.5
2018-12-14T01:06:35.389Z,17.5
2018-12-14T01:07:36.737Z,17.5
2018-12-14T01:08:38.082Z,17.5
2018-12-14T01:09:39.403Z,17.5
2018-12-14T01:10:41.019Z,17.5
2018-12-14T01:11:42.640Z,17.6
2018-12-14T01:12:43.959Z,17.5
2018-12-14T01:13:45.585Z,17.4
2018-12-14T01:14:46.350Z,17.5
2018-12-14T01:15:47.986Z,17.4
2018-12-14T01:16:49.877Z,17.4
2018-12-14T01:17:51.197Z,17.4
2018-12-14T01:18:53.099Z,17.5
2018-12-14T01:19:54.724Z,17.5
2018-12-14T01:20:56.616Z,17.6
2018-12-14T01:21:57.967Z,17.5
2018-12-14T01:22:59.594Z,17.6
2018-12-14T01:24:00.918Z,17.5
2018-12-14T01:25:02.537Z,17.4
2018-12-14T01:26:04.434Z,17.4
2018-12-14T01:27:06.329Z,17.4
2018-12-14T01:28:07.674Z,17.3
2018-12-14T01:29:09.346Z,17.1
2018-12-14T01:30:10.965Z,17.2
2018-12-14T01:31:12.306Z,17.3
2018-12-14T01:32:13.921Z,17.3
2018-12-14T01:33:15.816Z,17.3
2018-12-14T01:34:17.160Z,17.3
2018-12-14T01:35:18.503Z,17.4
2018-12-14T01:36:19.829Z,17.4
2018-12-14T01:37:21.152Z,17.3
2018-12-14T01:38:22.471Z,17.4
2018-12-14T01:39:24.414Z,17.4
2018-12-14T01:40:26.033Z,17.4
2018-12-14T01:41:27.650Z,17.5
2018-12-14T01:42:29.560Z,17.4
2018-12-14T01:43:31.159Z,17.3
2018-12-14T01:44:32.782Z,17.4
2018-12-14T01:45:34.677Z,17.4
2018-12-14T01:46:36.571Z,17.4
2018-12-14T01:47:37.341Z,17.4
2018-12-14T01:48:38.957Z,17.3
2018-12-14T01:49:40.852Z,17.3
2018-12-14T01:50:42.748Z,17.4
2018-12-14T01:51:44.070Z,17.3
2018-12-14T01:52:45.968Z,17.3
2018-12-14T01:53:47.860Z,17.4
2018-12-14T01:54:49.758Z,17.3
2018-12-14T01:55:51.382Z,17.3
2018-12-14T01:56:52.709Z,17.4
2018-12-14T01:57:53.752Z,17.3
2018-12-14T01:58:55.657Z,17.3
2018-12-14T01:59:57.267Z,17.4
2018-12-14T02:00:58.617Z,17.4
2018-12-14T02:02:00.511Z,17.4
2018-12-14T02:03:02.134Z,17.2
2018-12-14T02:04:03.458Z,17.2
2018-12-14T02:05:04.785Z,17.2
2018-12-14T02:06:06.381Z,17.2
2018-12-14T02:07:07.731Z,17.3
2018-12-14T02:08:09.327Z,17.2
2018-12-14T02:09:11.221Z,17.3
2018-12-14T02:10:12.584Z,17.2
2018-12-14T02:11:13.362Z,17.2
2018-12-14T02:12:14.983Z,17.3
2018-12-14T02:13:16.605Z,17.2
2018-12-14T02:14:18.201Z,17.2
2018-12-14T02:15:20.097Z,17.3
2018-12-14T02:16:21.716Z,17.2
2018-12-14T02:17:23.061Z,17.3
2018-12-14T02:18:24.734Z,17.3
2018-12-14T02:19:26.644Z,17.3
2018-12-14T02:20:28.529Z,17.3
2018-12-14T02:21:30.482Z,17.2
2018-12-14T02:22:32.389Z,17.2
2018-12-14T02:23:33.718Z,17.3
2018-12-14T02:24:35.040Z,17.2
2018-12-14T02:25:36.664Z,17.2
2018-12-14T02:26:38.283Z,17.2
2018-12-14T02:27:40.177Z,17.1
2018-12-14T02:28:41.794Z,17
2018-12-14T02:29:43.392Z,16.9
2018-12-14T02:30:45.290Z,17.1
2018-12-14T02:31:46.907Z,17.1
2018-12-14T02:32:48.524Z,17.1
2018-12-14T02:33:49.317Z,17.1
2018-12-14T02:34:51.199Z,17.1
2018-12-14T02:35:52.251Z,17.2
2018-12-14T02:36:54.150Z,17.2
2018-12-14T02:37:56.046Z,17.3
2018-12-14T02:38:57.663Z,17.3
2018-12-14T02:39:59.287Z,17.2
2018-12-14T02:41:00.905Z,17.2
2018-12-14T02:42:02.799Z,17.2
2018-12-14T02:43:04.470Z,17.2
2018-12-14T02:44:06.103Z,17.2
2018-12-14T02:45:07.445Z,17.2
2018-12-14T02:46:08.794Z,17.2
2018-12-14T02:47:10.139Z,17.2
2018-12-14T02:48:11.469Z,17.2
2018-12-14T02:49:13.084Z,17.2
2018-12-14T02:50:14.411Z,17.2
2018-12-14T02:51:16.032Z,17.1
2018-12-14T02:52:17.927Z,17.2
2018-12-14T02:53:19.825Z,17.2
2018-12-14T02:54:21.723Z,17.1
2018-12-14T02:55:22.787Z,17.2
2018-12-14T02:56:24.405Z,17.2
2018-12-14T02:57:25.729Z,17.1
2018-12-14T02:58:27.344Z,17.1
2018-12-14T02:59:28.964Z,17.2
2018-12-14T03:00:30.587Z,17.1
2018-12-14T03:01:32.210Z,17.2
2018-12-14T03:02:34.106Z,17.2
2018-12-14T03:03:35.433Z,17.2
2018-12-14T03:04:37.330Z,17.2
2018-12-14T03:05:39.225Z,17.2
2018-12-14T03:06:40.553Z,17.2
2018-12-14T03:07:42.183Z,17.2
2018-12-14T03:08:43.806Z,17.1
2018-12-14T03:09:45.740Z,17.2
2018-12-14T03:10:47.361Z,17.2
2018-12-14T03:11:49.000Z,17.2
2018-12-14T03:12:50.897Z,17.2
2018-12-14T03:13:52.796Z,17.2
2018-12-14T03:14:54.431Z,17.2
2018-12-14T03:15:55.749Z,17.2
2018-12-14T03:16:57.089Z,17.2
2018-12-14T03:17:58.709Z,17.2
2018-12-14T03:19:00.602Z,17.2
2018-12-14T03:20:02.495Z,17.2
2018-12-14T03:21:04.110Z,17.2
2018-12-14T03:22:05.458Z,17.1
2018-12-14T03:23:07.358Z,17.2
2018-12-14T03:24:08.705Z,17.2
2018-12-14T03:25:10.304Z,17.2
2018-12-14T03:26:11.925Z,17.2
2018-12-14T03:27:13.814Z,17.3
2018-12-14T03:28:15.438Z,17.2
2018-12-14T03:29:17.062Z,17.2
2018-12-14T03:30:18.957Z,17.3
2018-12-14T03:31:20.295Z,17.2
2018-12-14T03:32:22.194Z,17.3
2018-12-14T03:33:24.089Z,17.3
2018-12-14T03:34:25.151Z,17.2
2018-12-14T03:35:26.526Z,17.2
2018-12-14T03:36:27.867Z,17.3
2018-12-14T03:37:29.489Z,17.2
2018-12-14T03:38:31.384Z,17.3
2018-12-14T03:39:32.778Z,17.3
2018-12-14T03:40:34.399Z,17.3
2018-12-14T03:41:36.002Z,17.3
2018-12-14T03:42:37.899Z,17.2
2018-12-14T03:43:39.528Z,17.3
2018-12-14T03:44:41.423Z,17.3
2018-12-14T03:45:43.094Z,17.2
2018-12-14T03:46:44.988Z,17.2
2018-12-14T03:47:46.883Z,17.2
2018-12-14T03:48:48.778Z,17.2
2018-12-14T03:49:50.677Z,17.3
2018-12-14T03:50:52.042Z,17.3
2018-12-14T03:51:53.643Z,17.3
2018-12-14T03:52:55.266Z,17.3
2018-12-14T03:53:57.163Z,17.2
2018-12-14T03:54:58.783Z,17.3
2018-12-14T03:56:00.396Z,17.3
2018-12-14T03:57:01.997Z,17.3
2018-12-14T03:58:03.342Z,17.3
2018-12-14T03:59:04.974Z,17.3
2018-12-14T04:00:06.574Z,17.4
2018-12-14T04:01:08.471Z,17.3
2018-12-14T04:02:09.794Z,17.4
2018-12-14T04:03:11.137Z,17.4
2018-12-14T04:04:12.188Z,17.4
2018-12-14T04:05:14.084Z,17.3
2018-12-14T04:06:15.704Z,17.4
2018-12-14T04:07:17.325Z,17.4
2018-12-14T04:08:18.933Z,17.3
2018-12-14T04:09:20.829Z,17.4
2018-12-14T04:10:22.447Z,17.4
2018-12-14T04:11:23.799Z,17.4
2018-12-14T04:12:25.695Z,17.4
2018-12-14T04:13:27.312Z,17.4
2018-12-14T04:14:28.655Z,17.4
2018-12-14T04:15:30.269Z,17.5
2018-12-14T04:16:31.891Z,17.5
2018-12-14T04:17:32.963Z,17.4
2018-12-14T04:18:34.559Z,17.4
2018-12-14T04:19:36.180Z,17.4
2018-12-14T04:20:38.086Z,17.4
2018-12-14T04:21:39.691Z,17.4
2018-12-14T04:22:41.317Z,17.4
2018-12-14T04:23:43.212Z,17.4
2018-12-14T04:24:44.537Z,17.4
2018-12-14T04:25:46.160Z,17.4
2018-12-14T04:26:47.780Z,17.4
2018-12-14T04:27:49.107Z,17.4
2018-12-14T04:28:50.728Z,17.4
2018-12-14T04:29:52.053Z,17.4
2018-12-14T04:30:53.949Z,17.4
2018-12-14T04:31:55.860Z,17.4
2018-12-14T04:32:57.744Z,17.5
2018-12-14T04:33:59.066Z,17.5
2018-12-14T04:35:00.686Z,17.5
2018-12-14T04:36:02.582Z,17.5
2018-12-14T04:37:04.259Z,17.5
2018-12-14T04:38:05.586Z,17.5
2018-12-14T04:39:07.206Z,17.5
2018-12-14T04:40:07.980Z,17.5
2018-12-14T04:41:09.315Z,17.6
2018-12-14T04:42:11.228Z,17.5
2018-12-14T04:43:12.546Z,17.5
2018-12-14T04:44:13.881Z,17.5
2018-12-14T04:45:15.227Z,17.5
2018-12-14T04:46:16.850Z,17.5
2018-12-14T04:47:18.469Z,17.5
2018-12-14T04:48:20.371Z,17.5
2018-12-14T04:49:22.264Z,17.5
2018-12-14T04:50:23.943Z,17.5
2018-12-14T04:51:25.288Z,17.5
2018-12-14T04:52:27.181Z,17.6
2018-12-14T04:53:28.249Z,17.5
2018-12-14T04:54:29.884Z,17.4
2018-12-14T04:55:31.487Z,17.6
2018-12-14T04:56:33.108Z,17.4
2018-12-14T04:57:34.452Z,17.5
2018-12-14T04:58:35.803Z,17.4
2018-12-14T04:59:37.127Z,17.2
2018-12-14T05:00:38.744Z,17.2
2018-12-14T05:01:40.642Z,17.2
2018-12-14T05:02:42.264Z,17.2
2018-12-14T05:03:43.883Z,17
2018-12-14T05:04:45.820Z,17.1
2018-12-14T05:05:47.441Z,17.2
2018-12-14T05:06:49.059Z,17.2
2018-12-14T05:07:50.954Z,17.2
2018-12-14T05:08:52.553Z,17.2
2018-12-14T05:09:54.173Z,17.2
2018-12-14T05:10:56.068Z,17.2
2018-12-14T05:11:57.415Z,17.3
2018-12-14T05:12:58.734Z,17.3
2018-12-14T05:14:00.631Z,17.2
2018-12-14T05:15:02.526Z,17.2
2018-12-14T05:16:03.866Z,17.3
2018-12-14T05:17:05.489Z,17.3
2018-12-14T05:18:07.085Z,17.3
2018-12-14T05:19:08.685Z,17.3
2018-12-14T05:20:10.303Z,17.4
2018-12-14T05:21:11.923Z,17.3
2018-12-14T05:22:13.819Z,17.3
2018-12-14T05:23:14.596Z,17.3
2018-12-14T05:24:16.494Z,17.2
2018-12-14T05:25:18.111Z,17.3
2018-12-14T05:26:19.730Z,17.2
2018-12-14T05:27:21.620Z,17.2
2018-12-14T05:28:23.240Z,17.2
2018-12-14T05:29:25.136Z,17.3
2018-12-14T05:30:26.482Z,17.3
2018-12-14T05:31:28.080Z,17.2
2018-12-14T05:32:29.462Z,17.2
2018-12-14T05:33:31.082Z,17.1
2018-12-14T05:34:32.453Z,17.2
2018-12-14T05:35:34.074Z,17.2
2018-12-14T05:36:35.695Z,17.2
2018-12-14T05:37:37.313Z,17.2
2018-12-14T05:38:38.933Z,17.2
2018-12-14T05:39:40.829Z,17.3
2018-12-14T05:40:42.151Z,17.3
2018-12-14T05:41:44.048Z,17.3
2018-12-14T05:42:45.945Z,17.3
2018-12-14T05:43:47.287Z,17.3
2018-12-14T05:44:48.633Z,17.4
2018-12-14T05:45:50.249Z,17.4
2018-12-14T05:46:51.868Z,17.5
2018-12-14T05:47:52.916Z,17.5
2018-12-14T05:48:54.275Z,17.5
2018-12-14T05:49:55.598Z,17.5
2018-12-14T05:50:57.219Z,17.6
2018-12-14T05:51:59.113Z,17.5
2018-12-14T05:53:01.008Z,17.5
2018-12-14T05:54:02.906Z,17.4
2018-12-14T05:55:04.527Z,17.4
2018-12-14T05:56:05.872Z,17.4
2018-12-14T05:57:07.771Z,17.3
2018-12-14T05:58:09.123Z,17.4
2018-12-14T05:59:10.742Z,17.3
2018-12-14T06:00:12.637Z,17.4
2018-12-14T06:01:13.961Z,17.4
2018-12-14T06:02:15.290Z,17.3
2018-12-14T06:03:16.912Z,17.3
2018-12-14T06:04:18.804Z,17.3
2018-12-14T06:05:20.436Z,17.4
2018-12-14T06:06:21.777Z,17.4
2018-12-14T06:07:23.397Z,17.3
2018-12-14T06:08:24.744Z,17.4
2018-12-14T06:09:26.639Z,17.3
2018-12-14T06:10:28.236Z,17.3
2018-12-14T06:11:29.575Z,17.3
2018-12-14T06:12:31.471Z,17.4
2018-12-14T06:13:33.070Z,17.4
2018-12-14T06:14:34.693Z,17.4
2018-12-14T06:15:36.012Z,17.4
2018-12-14T06:16:37.065Z,17.4
2018-12-14T06:17:38.956Z,17.4
2018-12-14T06:18:40.579Z,17.3
2018-12-14T06:19:42.476Z,17.4
2018-12-14T06:20:44.098Z,17.4
2018-12-14T06:21:45.695Z,17.5
2018-12-14T06:22:47.313Z,17.4
2018-12-14T06:23:49.204Z,17.4
2018-12-14T06:24:50.838Z,17.4
2018-12-14T06:25:52.184Z,17.3
2018-12-14T06:26:53.534Z,17.4
2018-12-14T06:27:54.883Z,17.4
2018-12-14T06:28:56.776Z,17.4
2018-12-14T06:29:58.672Z,17.4
2018-12-14T06:30:59.997Z,17.5
2018-12-14T06:32:01.616Z,17.5
2018-12-14T06:33:03.511Z,17.5
2018-12-14T06:34:04.858Z,17.5
2018-12-14T06:35:06.179Z,17.5
2018-12-14T06:36:07.799Z,17.4
2018-12-14T06:37:09.146Z,17.5
2018-12-14T06:38:10.744Z,17.4
2018-12-14T06:39:12.641Z,17.4
2018-12-14T06:40:14.537Z,17.5
2018-12-14T06:41:16.137Z,17.4
2018-12-14T06:42:18.036Z,17.4
2018-12-14T06:43:19.658Z,17.4
2018-12-14T06:44:21.280Z,17.4
2018-12-14T06:45:22.332Z,17.4
2018-12-14T06:46:23.933Z,17.4
2018-12-14T06:47:25.277Z,17.4
2018-12-14T06:48:26.620Z,17.3
2018-12-14T06:49:27.660Z,17.3
2018-12-14T06:50:28.707Z,17.3
2018-12-14T06:51:30.082Z,17.3
2018-12-14T06:52:31.976Z,17.3
2018-12-14T06:53:33.596Z,17.3
2018-12-14T06:54:35.257Z,17.3
2018-12-14T06:55:36.603Z,17.4
2018-12-14T06:56:38.270Z,17.4
2018-12-14T06:57:39.890Z,17.4
2018-12-14T06:58:41.507Z,17.5
2018-12-14T06:59:43.105Z,17.5
2018-12-14T07:00:45.058Z,17.6
2018-12-14T07:01:46.956Z,17.5
2018-12-14T07:02:48.850Z,17.5
2018-12-14T07:03:50.471Z,17.6
2018-12-14T07:04:52.088Z,17.5
2018-12-14T07:05:53.410Z,17.5
2018-12-14T07:06:54.508Z,17.6
2018-12-14T07:07:56.130Z,17.6
2018-12-14T07:08:58.028Z,17.6
2018-12-14T07:09:59.923Z,17.5
2018-12-14T07:11:01.545Z,17.5
2018-12-14T07:12:03.168Z,17.6
2018-12-14T07:13:04.791Z,17.5
2018-12-14T07:14:06.688Z,17.5
2018-12-14T07:15:08.311Z,17.6
2018-12-14T07:16:10.206Z,17.6
2018-12-14T07:17:12.100Z,17.5
2018-12-14T07:18:14.030Z,17.5
2018-12-14T07:19:15.243Z,17.5
2018-12-14T07:20:17.138Z,17.6
2018-12-14T07:21:18.763Z,17.6
2018-12-14T07:22:20.660Z,17.6
2018-12-14T07:23:22.264Z,17.6
2018-12-14T07:24:23.588Z,17.6
2018-12-14T07:25:24.633Z,17.5
2018-12-14T07:26:26.530Z,17.6
2018-12-14T07:27:28.148Z,17.5
2018-12-14T07:28:29.770Z,17.6
2018-12-14T07:29:31.392Z,17.5
2018-12-14T07:30:33.289Z,17.6
2018-12-14T07:31:34.912Z,17.6
2018-12-14T07:32:38.086Z,17.6
2018-12-14T07:33:39.816Z,17.6
2018-12-14T07:34:41.437Z,17.5
2018-12-14T07:35:43.350Z,17.7
2018-12-14T07:36:44.672Z,17.7
2018-12-14T07:37:46.299Z,17.6
2018-12-14T07:38:48.192Z,17.6
2018-12-14T07:39:50.205Z,17.7
2018-12-14T07:40:51.548Z,17.7
2018-12-14T07:41:53.183Z,17.5
2018-12-14T07:42:55.130Z,17.6
2018-12-14T07:43:56.753Z,17.5
2018-12-14T07:44:58.410Z,17.6
2018-12-14T07:46:00.312Z,17.6
2018-12-14T07:47:01.915Z,17.7
2018-12-14T07:48:03.582Z,17.7
2018-12-14T07:49:04.823Z,17.6
2018-12-14T07:50:06.561Z,17.7
2018-12-14T07:51:08.273Z,17.7
2018-12-14T07:52:10.383Z,17.6
2018-12-14T07:53:12.033Z,17.7
2018-12-14T07:54:13.419Z,17.6
2018-12-14T07:55:15.554Z,17.7
2018-12-14T07:56:17.379Z,17.7
2018-12-14T07:57:20.162Z,17.5
2018-12-14T07:58:21.786Z,17.6
2018-12-14T07:59:22.562Z,17.6
2018-12-14T08:00:24.255Z,17.6
2018-12-14T08:01:26.171Z,17.6
2018-12-14T08:02:27.230Z,17.6
2018-12-14T08:03:28.935Z,17.6
2018-12-14T08:04:30.952Z,17.5
2018-12-14T08:05:32.380Z,17.5
2018-12-14T08:06:33.855Z,17.6
2018-12-14T08:07:35.614Z,17.6
2018-12-14T08:08:37.512Z,17.5
2018-12-14T08:09:38.861Z,17.6
2018-12-14T08:10:40.219Z,17.6
2018-12-14T08:11:41.551Z,17.5
2018-12-14T08:12:43.459Z,17.5
2018-12-14T08:13:45.081Z,17.5
2018-12-14T08:14:46.981Z,17.6
2018-12-14T08:15:48.605Z,17.6
2018-12-14T08:16:49.951Z,17.6
2018-12-14T08:17:51.555Z,17.6
2018-12-14T08:18:53.197Z,17.6
2018-12-14T08:19:54.902Z,17.6
2018-12-14T08:20:56.530Z,17.7
2018-12-14T08:21:58.136Z,17.6
2018-12-14T08:22:59.242Z,17.5
2018-12-14T08:24:00.653Z,17.6
2018-12-14T08:25:02.273Z,17.5
2018-12-14T08:26:03.619Z,17.6
2018-12-14T08:27:04.719Z,17.5
2018-12-14T08:28:06.046Z,17.6
2018-12-14T08:29:07.382Z,17.6
2018-12-14T08:30:09.284Z,17.5
2018-12-14T08:31:10.907Z,17.6
2018-12-14T08:32:12.611Z,17.6
2018-12-14T08:33:13.939Z,17.6
2018-12-14T08:34:15.550Z,17.7
2018-12-14T08:35:17.177Z,17.6
2018-12-14T08:36:18.799Z,17.6
2018-12-14T08:37:19.873Z,17.6
2018-12-14T08:38:20.952Z,17.5
2018-12-14T08:39:22.579Z,17.5
2018-12-14T08:40:24.200Z,17.6
2018-12-14T08:41:26.095Z,17.5
2018-12-14T08:42:28.000Z,17.5
2018-12-14T08:43:29.961Z,17.6
2018-12-14T08:44:31.633Z,17.6
2018-12-14T08:45:33.260Z,17.6
2018-12-14T08:46:35.159Z,17.6
2018-12-14T08:47:35.977Z,17.5
2018-12-14T08:48:38.020Z,17.6
2018-12-14T08:49:39.996Z,17.5
2018-12-14T08:50:41.243Z,17.6
2018-12-14T08:51:42.580Z,17.6
2018-12-14T08:52:45.243Z,17.5
2018-12-14T08:53:47.233Z,17.5
2018-12-14T08:54:48.693Z,17.5
2018-12-14T08:55:50.408Z,17.5
2018-12-14T08:56:52.310Z,17.6
2018-12-14T08:57:53.366Z,17.6
2018-12-14T08:58:54.971Z,17.6
2018-12-14T08:59:56.450Z,17.7
2018-12-14T09:00:57.802Z,17.7
2018-12-14T09:01:59.623Z,17.6
2018-12-14T09:03:01.037Z,17.5
2018-12-14T09:04:02.811Z,17.7
2018-12-14T09:05:04.449Z,17.6
2018-12-14T09:06:06.080Z,17.6
2018-12-14T09:07:07.430Z,17.5
2018-12-14T09:08:09.328Z,17.6
2018-12-14T09:09:10.925Z,17.6
2018-12-14T09:10:12.537Z,17.6
2018-12-14T09:11:13.880Z,17.6
2018-12-14T09:12:15.210Z,17.6
2018-12-14T09:13:16.260Z,17.6
2018-12-14T09:14:17.887Z,17.6
2018-12-14T09:15:19.233Z,17.7
2018-12-14T09:16:21.129Z,17.7
2018-12-14T09:17:22.757Z,17.6
2018-12-14T09:18:24.084Z,17.6
2018-12-14T09:19:25.708Z,17.6
2018-12-14T09:20:27.331Z,17.7
2018-12-14T09:21:28.667Z,17.7
2018-12-14T09:22:29.998Z,17.7
2018-12-14T09:23:31.895Z,17.7
2018-12-14T09:24:33.240Z,17.8
2018-12-14T09:25:34.848Z,17.7
2018-12-14T09:26:36.747Z,17.7
2018-12-14T09:27:38.096Z,17.7
2018-12-14T09:28:39.470Z,17.7
2018-12-14T09:29:40.815Z,17.6
2018-12-14T09:30:43.032Z,17.7
2018-12-14T09:31:44.830Z,17.5
2018-12-14T09:32:46.504Z,17.6
2018-12-14T09:33:47.557Z,17.6
2018-12-14T09:34:48.905Z,17.5
2018-12-14T09:35:50.231Z,17.5
2018-12-14T09:36:52.129Z,17.6
2018-12-14T09:37:54.026Z,17.6
2018-12-14T09:38:55.655Z,17.6
2018-12-14T09:39:57.309Z,17.6
2018-12-14T09:40:58.954Z,17.6
2018-12-14T09:42:00.593Z,17.6
2018-12-14T09:43:02.289Z,17.7
2018-12-14T09:44:04.183Z,17.8
2018-12-14T09:45:05.804Z,17.7
2018-12-14T09:46:07.131Z,17.7
2018-12-14T09:47:08.762Z,17.7
2018-12-14T09:48:10.435Z,17.8
2018-12-14T09:49:12.055Z,17.7
2018-12-14T09:50:13.679Z,17.7
2018-12-14T09:51:15.323Z,17.7
2018-12-14T09:52:17.218Z,17.7
2018-12-14T09:53:18.263Z,17.8
2018-12-14T09:54:19.606Z,17.7
2018-12-14T09:55:21.227Z,17.7
2018-12-14T09:56:23.124Z,17.7
2018-12-14T09:57:24.745Z,17.7
2018-12-14T09:58:26.429Z,17.8
2018-12-14T09:59:27.781Z,17.7
2018-12-14T10:00:29.119Z,17.8
2018-12-14T10:01:30.807Z,17.8
2018-12-14T10:02:32.152Z,17.8
2018-12-14T10:03:33.291Z,17.8
2018-12-14T10:04:34.938Z,17.8
2018-12-14T10:05:36.839Z,17.8
2018-12-14T10:06:38.457Z,17.9
2018-12-14T10:07:46.758Z,17.8
2018-12-14T10:08:48.041Z,17.9
2018-12-14T10:09:49.944Z,17.8
2018-12-14T10:10:51.265Z,17.8
2018-12-14T10:11:55.163Z,17.8
2018-12-14T10:12:57.395Z,17.8
2018-12-14T10:14:00.873Z,17.8
2018-12-14T10:15:02.937Z,17.8
2018-12-14T10:16:04.262Z,17.8
2018-12-14T10:17:06.230Z,17.8
2018-12-14T10:18:07.555Z,17.8
2018-12-14T10:19:09.176Z,17.8
2018-12-14T10:20:11.076Z,17.8
2018-12-14T10:21:12.425Z,17.7
2018-12-14T10:22:14.049Z,17.8
2018-12-14T10:23:15.943Z,17.8
2018-12-14T10:24:17.568Z,17.8
2018-12-14T10:25:18.627Z,17.8
2018-12-14T10:26:20.227Z,17.8
2018-12-14T10:27:21.570Z,17.7
2018-12-14T10:28:23.192Z,17.8
2018-12-14T10:29:25.091Z,17.8
2018-12-14T10:30:26.716Z,17.8
2018-12-14T10:31:28.335Z,17.8
2018-12-14T10:32:30.231Z,17.9
2018-12-14T10:33:32.128Z,17.8
2018-12-14T10:34:34.031Z,17.7
2018-12-14T10:35:35.655Z,17.7
2018-12-14T10:36:37.257Z,17.8
2018-12-14T10:37:38.876Z,17.8
2018-12-14T10:38:40.813Z,17.8
2018-12-14T10:39:42.152Z,17.8
2018-12-14T10:40:43.495Z,17.8
2018-12-14T10:41:45.391Z,17.8
2018-12-14T10:42:47.028Z,17.8
2018-12-14T10:43:48.791Z,17.8
2018-12-14T10:44:50.447Z,17.7
2018-12-14T10:45:52.751Z,17.9
2018-12-14T10:46:54.716Z,17.9
2018-12-14T10:47:56.339Z,17.9
2018-12-14T10:48:57.790Z,17.9
2018-12-14T10:49:58.836Z,17.9
2018-12-14T10:51:00.182Z,17.9
2018-12-14T10:52:01.904Z,17.9
2018-12-14T10:53:03.012Z,17.9
2018-12-14T10:54:06.133Z,17.9
2018-12-14T10:55:07.759Z,17.9
2018-12-14T10:56:09.083Z,17.9
2018-12-14T10:57:16.122Z,17.9
2018-12-14T10:58:17.567Z,17.9
2018-12-14T10:59:18.891Z,17.9
2018-12-14T11:00:20.515Z,17.8
2018-12-14T11:01:22.414Z,17.8
2018-12-14T11:02:23.739Z,17.9
2018-12-14T11:03:25.636Z,17.8
2018-12-14T11:04:27.533Z,17.9
2018-12-14T11:05:29.152Z,17.9
2018-12-14T11:06:30.202Z,17.9
2018-12-14T11:07:32.094Z,18
2018-12-14T11:08:33.775Z,18
2018-12-14T11:09:35.402Z,18
2018-12-14T11:10:37.351Z,18
2018-12-14T11:11:38.973Z,17.9
2018-12-14T11:12:40.871Z,17.9
2018-12-14T11:13:42.554Z,17.9
2018-12-14T11:14:44.530Z,17.9
2018-12-14T11:15:46.316Z,17.9
2018-12-14T11:16:47.914Z,17.9
2018-12-14T11:17:49.814Z,18
2018-12-14T11:18:51.438Z,17.9
2018-12-14T11:19:53.341Z,17.9
2018-12-14T11:20:54.946Z,17.9
2018-12-14T11:21:56.845Z,17.9
2018-12-14T11:22:58.741Z,17.9
2018-12-14T11:24:00.068Z,17.9
2018-12-14T11:25:01.672Z,17.9
2018-12-14T11:26:03.299Z,17.9
2018-12-14T11:27:05.197Z,17.9
2018-12-14T11:28:07.095Z,17.9
2018-12-14T11:29:08.718Z,17.9
2018-12-14T11:30:10.335Z,17.9
2018-12-14T11:31:11.937Z,17.9
2018-12-14T11:32:13.561Z,17.9
2018-12-14T11:33:15.460Z,17.9
2018-12-14T11:34:16.935Z,18
2018-12-14T11:35:18.282Z,17.9
2018-12-14T11:36:19.903Z,17.9
2018-12-14T11:37:21.229Z,17.8
2018-12-14T11:38:22.851Z,17.9
2018-12-14T11:39:24.472Z,17.8
2018-12-14T11:40:26.369Z,17.8
2018-12-14T11:41:27.990Z,17.9
2018-12-14T11:42:29.609Z,17.9
2018-12-14T11:43:30.948Z,17.9
2018-12-14T11:44:32.898Z,18
2018-12-14T11:45:34.532Z,18
2018-12-14T11:46:36.174Z,18
2018-12-14T11:47:37.854Z,17.9
2018-12-14T11:48:39.296Z,18
2018-12-14T11:49:40.919Z,18
2018-12-14T11:50:42.814Z,18
2018-12-14T11:51:44.713Z,18
2018-12-14T11:52:46.338Z,17.9
2018-12-14T11:53:48.059Z,17.9
2018-12-14T11:54:49.436Z,17.9
2018-12-14T11:55:50.788Z,18
2018-12-14T11:56:51.561Z,17.9
2018-12-14T11:57:52.891Z,17.9
2018-12-14T11:58:54.215Z,17.9
2018-12-14T11:59:55.834Z,18
2018-12-14T12:00:57.458Z,17.9
2018-12-14T12:01:58.783Z,18
2018-12-14T12:03:00.403Z,17.9
2018-12-14T12:04:02.299Z,17.9
2018-12-14T12:05:03.905Z,18
2018-12-14T12:06:05.526Z,17.8
2018-12-14T12:07:06.877Z,17.9
2018-12-14T12:08:08.498Z,17.9
2018-12-14T12:09:10.393Z,17.8
2018-12-14T12:10:12.293Z,17.7
2018-12-14T12:11:14.186Z,17.9
2018-12-14T12:12:15.235Z,17.9
2018-12-14T12:13:16.844Z,17.9
2018-12-14T12:14:18.742Z,17.9
2018-12-14T12:15:20.049Z,17.9
2018-12-14T12:16:21.944Z,17.9
2018-12-14T12:17:23.595Z,17.9
2018-12-14T12:18:25.502Z,17.9
2018-12-14T12:19:27.189Z,17.9
2018-12-14T12:20:29.081Z,17.8
2018-12-14T12:21:30.432Z,17.8
2018-12-14T12:22:32.058Z,17.8
2018-12-14T12:23:33.683Z,17.9
2018-12-14T12:24:35.291Z,17.9
2018-12-14T12:25:36.661Z,17.9
2018-12-14T12:26:38.263Z,17.8
2018-12-14T12:27:39.895Z,17.9
2018-12-14T12:28:41.216Z,17.9
2018-12-14T12:29:43.109Z,17.8
2018-12-14T12:30:44.160Z,17.8
2018-12-14T12:31:45.209Z,17.8
2018-12-14T12:32:48.114Z,17.9
2018-12-14T12:33:49.560Z,17.9
2018-12-14T12:34:51.182Z,17.9
2018-12-14T12:35:52.522Z,17.9
2018-12-14T12:36:53.843Z,17.8
2018-12-14T12:37:55.167Z,17.7
2018-12-14T12:38:56.218Z,17.7
2018-12-14T12:39:58.122Z,17.6
2018-12-14T12:40:59.489Z,17.7
2018-12-14T12:42:01.386Z,17.7
2018-12-14T12:43:02.707Z,17.8
2018-12-14T12:44:04.112Z,17.7
2018-12-14T12:45:06.006Z,17.7
2018-12-14T12:46:08.596Z,17.8
2018-12-14T12:47:09.942Z,17.9
2018-12-14T12:48:11.837Z,17.7
2018-12-14T12:49:13.737Z,17.8
2018-12-14T12:50:15.351Z,17.8
2018-12-14T12:51:17.259Z,17.8
2018-12-14T12:52:18.875Z,17.7
2018-12-14T12:53:20.499Z,17.7
2018-12-14T12:54:22.394Z,17.7
2018-12-14T12:55:24.016Z,17.8
2018-12-14T12:56:25.344Z,17.8
2018-12-14T12:57:26.665Z,17.7
2018-12-14T12:58:28.562Z,17.8
2018-12-14T12:59:30.458Z,17.8
2018-12-14T13:00:32.361Z,17.9
2018-12-14T13:01:34.001Z,17.9
2018-12-14T13:02:35.313Z,17.9
2018-12-14T13:03:36.370Z,17.9
2018-12-14T13:04:38.875Z,17.9
2018-12-14T13:05:40.534Z,17.9
2018-12-14T13:06:41.590Z,17.8
2018-12-14T13:07:43.208Z,17.8
2018-12-14T13:08:44.809Z,17.9
2018-12-14T13:09:46.157Z,17.9
2018-12-14T13:10:47.781Z,17.9
2018-12-14T13:11:49.387Z,17.9
2018-12-14T13:12:50.712Z,17.9
2018-12-14T13:13:52.611Z,17.9
2018-12-14T13:14:53.936Z,17.9
2018-12-14T13:15:55.534Z,17.8
2018-12-14T13:16:56.863Z,17.9
2018-12-14T13:17:58.212Z,17.8
2018-12-14T13:18:59.835Z,17.8
2018-12-14T13:20:01.456Z,17.7
2018-12-14T13:21:02.781Z,17.7
2018-12-14T13:22:03.880Z,17.7
2018-12-14T13:23:05.496Z,17.7
2018-12-14T13:24:07.395Z,17.7
2018-12-14T13:25:08.995Z,17.7
2018-12-14T13:26:10.342Z,17.8
2018-12-14T13:27:11.964Z,17.8
2018-12-14T13:28:13.310Z,17.8
2018-12-14T13:29:15.204Z,17.8
2018-12-14T13:30:17.121Z,17.8
2018-12-14T13:31:18.451Z,17.8
2018-12-14T13:32:20.351Z,17.9
2018-12-14T13:33:21.692Z,17.8
2018-12-14T13:34:23.038Z,17.8
2018-12-14T13:35:24.095Z,17.8
2018-12-14T13:36:25.420Z,17.8
2018-12-14T13:37:27.045Z,17.8
2018-12-14T13:38:28.673Z,17.8
2018-12-14T13:39:30.319Z,17.9
2018-12-14T13:40:31.675Z,17.8
2018-12-14T13:41:33.275Z,17.8